PWSweather.com
Personal Weather Stations
Station Observations
KNCCHINA3
Red Tractor Trail, China Grove, NC 28023

Red Tractor TrailChina Grove, NC 28023

Lat: 35.59751, Lon: -80.60201

Elevation: 800

Station Type: Oregon Scientific WMR 968

http://www.joesweathergarage.com

High Low Average
Temperature 58.7°F14.8°C 53.3°F11.8°C 55.8°F13.2°C
Dew Point 56.6°F13.7°C 44.8°F7.1°C 52.5°F11.4°C
Winds 20.6 mph 33.2 kmh Calm Calm 7.0 mph E11.3 kmh E
Wind Gusts 26.8 mph43.1 kmh 5.0 mph8.0 kmh 11.0 mph17.7 kmh
Humidity 98% 69% 89%
Pressure 30.27 in1025.1 mb 30.03 in1016.9 mb -
Precipitation 1.53 in38.9 mm - -
Hour Temp Dew Point Humidity Winds Wind Gusts Pressure Precip Precip Rate Daily Precip Total
12:01 AM 59.6°F15.3°C 52.7°F11.5°C 78% 5.3 mph S8.5 kmh S 7.6 mph12.2 kmh 30.24 in1024.0 mb 0.00 in0.0 mm 0.00 in0.0 mm 0.00 in0.0 mm
12:06 AM 59.6°F15.3°C 52.7°F11.5°C 78% 6.5 mph SSE10.5 kmh SSE 9.4 mph15.1 kmh 30.24 in1024.0 mb 0.00 in0.0 mm 0.00 in0.0 mm 0.00 in0.0 mm
12:11 AM 59.6°F15.3°C 52.7°F11.5°C 78% 4.4 mph S7.1 kmh S 9.4 mph15.1 kmh 30.24 in1024.0 mb 0.00 in0.0 mm 0.00 in0.0 mm 0.00 in0.0 mm
12:17 AM 59.6°F15.3°C 52.7°F11.5°C 78% 4.3 mph SSE6.9 kmh SSE 6.2 mph10.0 kmh 30.24 in1024.0 mb 0.00 in0.0 mm 0.00 in0.0 mm 0.00 in0.0 mm
12:22 AM 59.6°F15.3°C 52.7°F11.5°C 78% 4.7 mph SE7.6 kmh SE 6.2 mph10.0 kmh 30.24 in1024.0 mb 0.00 in0.0 mm 0.00 in0.0 mm 0.00 in0.0 mm
12:27 AM 59.4°F15.2°C 52.5°F11.4°C 78% 7.8 mph SE12.6 kmh SE 14.4 mph23.2 kmh 30.24 in1024.0 mb 0.00 in0.0 mm 0.00 in0.0 mm 0.00 in0.0 mm
12:32 AM 59.4°F15.2°C 52.5°F11.4°C 78% 5.3 mph S8.5 kmh S 14.4 mph23.2 kmh 30.24 in1024.0 mb 0.00 in0.0 mm 0.00 in0.0 mm 0.00 in0.0 mm
12:38 AM 59.3°F15.2°C 52.4°F11.3°C 78% 3.9 mph SSE6.3 kmh SSE 8.6 mph13.8 kmh 30.24 in1024.0 mb 0.00 in0.0 mm 0.00 in0.0 mm 0.00 in0.0 mm
12:43 AM 59.3°F15.2°C 52.4°F11.3°C 78% 4.0 mph SE6.4 kmh SE 9.4 mph15.1 kmh 30.24 in1024.0 mb 0.00 in0.0 mm 0.00 in0.0 mm 0.00 in0.0 mm
12:50 AM 59.1°F15.1°C 52.2°F11.2°C 78% 3.8 mph SSE6.1 kmh SSE 7.2 mph11.6 kmh 30.24 in1024.0 mb 0.00 in0.0 mm 0.00 in0.0 mm 0.00 in0.0 mm
12:55 AM 58.7°F14.8°C 51.8°F11.0°C 78% 2.8 mph SSE4.5 kmh SSE 7.2 mph11.6 kmh 30.24 in1024.0 mb 0.00 in0.0 mm 0.00 in0.0 mm 0.00 in0.0 mm
01:00 AM 58.5°F14.7°C 51.6°F10.9°C 78% 4.0 mph ESE6.4 kmh ESE 6.2 mph10.0 kmh 30.24 in1024.0 mb 0.00 in0.0 mm 0.00 in0.0 mm 0.00 in0.0 mm
01:05 AM 58.7°F14.8°C 52.2°F11.2°C 79% 2.9 mph ESE4.7 kmh ESE 6.2 mph10.0 kmh 30.24 in1024.0 mb 0.00 in0.0 mm 0.00 in0.0 mm 0.00 in0.0 mm
01:12 AM 58.5°F14.7°C 52.0°F11.1°C 79% 3.0 mph SSE4.8 kmh SSE 6.8 mph10.9 kmh 30.24 in1024.0 mb 0.00 in0.0 mm 0.00 in0.0 mm 0.00 in0.0 mm
01:17 AM 58.4°F14.7°C 51.9°F11.1°C 79% 4.2 mph S6.8 kmh S 7.2 mph11.6 kmh 30.24 in1024.0 mb 0.00 in0.0 mm 0.00 in0.0 mm 0.00 in0.0 mm
01:22 AM 58.4°F14.7°C 51.9°F11.1°C 79% 5.7 mph SE9.2 kmh SE 9.4 mph15.1 kmh 30.24 in1024.0 mb 0.00 in0.0 mm 0.00 in0.0 mm 0.00 in0.0 mm
01:27 AM 58.4°F14.7°C 51.9°F11.1°C 79% 4.2 mph SE6.8 kmh SE 9.8 mph15.8 kmh 30.24 in1024.0 mb 0.00 in0.0 mm 0.00 in0.0 mm 0.00 in0.0 mm
01:32 AM 58.2°F14.6°C 51.7°F10.9°C 79% 4.7 mph SE7.6 kmh SE 9.8 mph15.8 kmh 30.24 in1024.0 mb 0.00 in0.0 mm 0.00 in0.0 mm 0.00 in0.0 mm
01:37 AM 58.2°F14.6°C 52.0°F11.1°C 80% 6.2 mph SE10.0 kmh SE 9.8 mph15.8 kmh 30.24 in1024.0 mb 0.00 in0.0 mm 0.00 in0.0 mm 0.00 in0.0 mm
01:42 AM 58.2°F14.6°C 52.0°F11.1°C 80% 4.6 mph S7.4 kmh S 9.8 mph15.8 kmh 30.24 in1024.0 mb 0.00 in0.0 mm 0.00 in0.0 mm 0.00 in0.0 mm
01:47 AM 58.2°F14.6°C 52.0°F11.1°C 80% 3.8 mph SE6.1 kmh SE 8.6 mph13.8 kmh 30.24 in1024.0 mb 0.00 in0.0 mm 0.00 in0.0 mm 0.00 in0.0 mm
01:52 AM 58.2°F14.6°C 52.0°F11.1°C 80% 5.2 mph SE8.4 kmh SE 7.6 mph12.2 kmh 30.24 in1024.0 mb 0.00 in0.0 mm 0.00 in0.0 mm 0.00 in0.0 mm
01:57 AM 58.0°F14.4°C 51.5°F10.8°C 79% 2.3 mph SSE3.7 kmh SSE 7.2 mph11.6 kmh 30.24 in1024.0 mb 0.00 in0.0 mm 0.00 in0.0 mm 0.00 in0.0 mm
02:02 AM 58.0°F14.4°C 51.8°F11.0°C 80% 6.2 mph SE10.0 kmh SE 8.6 mph13.8 kmh 30.24 in1024.0 mb 0.00 in0.0 mm 0.00 in0.0 mm 0.00 in0.0 mm
02:07 AM 58.0°F14.4°C 51.8°F11.0°C 80% 3.9 mph ESE6.3 kmh ESE 8.6 mph13.8 kmh 30.24 in1024.0 mb 0.00 in0.0 mm 0.00 in0.0 mm 0.00 in0.0 mm
02:12 AM 58.0°F14.4°C 51.8°F11.0°C 80% 5.1 mph SE8.2 kmh SE 10.8 mph17.4 kmh 30.24 in1024.0 mb 0.00 in0.0 mm 0.00 in0.0 mm 0.00 in0.0 mm
02:17 AM 57.8°F14.3°C 51.6°F10.9°C 80% 4.2 mph ESE6.8 kmh ESE 10.8 mph17.4 kmh 30.24 in1024.0 mb 0.00 in0.0 mm 0.00 in0.0 mm 0.00 in0.0 mm
02:22 AM 57.8°F14.3°C 51.6°F10.9°C 80% 5.6 mph ESE9.0 kmh ESE 6.2 mph10.0 kmh 30.21 in1023.0 mb 0.00 in0.0 mm 0.00 in0.0 mm 0.00 in0.0 mm
02:27 AM 57.8°F14.3°C 51.6°F10.9°C 80% 4.4 mph ESE7.1 kmh ESE 6.2 mph10.0 kmh 30.21 in1023.0 mb 0.00 in0.0 mm 0.00 in0.0 mm 0.00 in0.0 mm
02:32 AM 57.6°F14.2°C 51.4°F10.8°C 80% 4.6 mph ESE7.4 kmh ESE 8.0 mph12.9 kmh 30.21 in1023.0 mb 0.00 in0.0 mm 0.00 in0.0 mm 0.00 in0.0 mm
02:37 AM 57.6°F14.2°C 51.4°F10.8°C 80% 4.5 mph ESE7.2 kmh ESE 12.6 mph20.3 kmh 30.21 in1023.0 mb 0.00 in0.0 mm 0.00 in0.0 mm 0.00 in0.0 mm
02:42 AM 57.6°F14.2°C 51.4°F10.8°C 80% 5.8 mph ESE9.3 kmh ESE 12.6 mph20.3 kmh 30.21 in1023.0 mb 0.00 in0.0 mm 0.00 in0.0 mm 0.00 in0.0 mm
02:47 AM 57.6°F14.2°C 51.4°F10.8°C 80% 6.5 mph SE10.5 kmh SE 8.6 mph13.8 kmh 30.21 in1023.0 mb 0.00 in0.0 mm 0.00 in0.0 mm 0.00 in0.0 mm
02:52 AM 57.5°F14.2°C 51.3°F10.7°C 80% 7.5 mph SE12.1 kmh SE 11.2 mph18.0 kmh 30.21 in1023.0 mb 0.00 in0.0 mm 0.00 in0.0 mm 0.00 in0.0 mm
02:57 AM 57.3°F14.1°C 51.1°F10.6°C 80% 5.4 mph SE8.7 kmh SE 11.2 mph18.0 kmh 30.21 in1023.0 mb 0.00 in0.0 mm 0.00 in0.0 mm 0.00 in0.0 mm
03:04 AM 57.1°F13.9°C 50.9°F10.5°C 80% 5.3 mph SE8.5 kmh SE 9.8 mph15.8 kmh 30.21 in1023.0 mb 0.00 in0.0 mm 0.00 in0.0 mm 0.00 in0.0 mm
03:09 AM 57.1°F13.9°C 50.6°F10.3°C 79% 2.7 mph SE4.3 kmh SE 7.6 mph12.2 kmh 30.21 in1023.0 mb 0.00 in0.0 mm 0.00 in0.0 mm 0.00 in0.0 mm
03:14 AM 56.9°F13.8°C 50.4°F10.2°C 79% 5.3 mph ESE8.5 kmh ESE 8.0 mph12.9 kmh 30.21 in1023.0 mb 0.00 in0.0 mm 0.00 in0.0 mm 0.00 in0.0 mm
03:19 AM 56.9°F13.8°C 50.1°F10.1°C 78% 4.2 mph ESE6.8 kmh ESE 8.0 mph12.9 kmh 30.21 in1023.0 mb 0.00 in0.0 mm 0.00 in0.0 mm 0.00 in0.0 mm
03:25 AM 56.7°F13.7°C 49.9°F9.9°C 78% 4.0 mph ESE6.4 kmh ESE 8.0 mph12.9 kmh 30.21 in1023.0 mb 0.00 in0.0 mm 0.00 in0.0 mm 0.00 in0.0 mm
03:30 AM 56.7°F13.7°C 49.9°F9.9°C 78% 4.5 mph SE7.2 kmh SE 9.4 mph15.1 kmh 30.21 in1023.0 mb 0.00 in0.0 mm 0.00 in0.0 mm 0.00 in0.0 mm
03:35 AM 56.9°F13.8°C 49.7°F9.8°C 77% 4.8 mph SE7.7 kmh SE 9.4 mph15.1 kmh 30.21 in1023.0 mb 0.00 in0.0 mm 0.00 in0.0 mm 0.00 in0.0 mm
03:40 AM 56.7°F13.7°C 49.5°F9.7°C 77% 2.8 mph SE4.5 kmh SE 8.6 mph13.8 kmh 30.21 in1023.0 mb 0.00 in0.0 mm 0.00 in0.0 mm 0.00 in0.0 mm
03:45 AM 56.7°F13.7°C 49.5°F9.7°C 77% 3.6 mph ESE5.8 kmh ESE 5.8 mph9.3 kmh 30.21 in1023.0 mb 0.00 in0.0 mm 0.00 in0.0 mm 0.00 in0.0 mm
03:50 AM 56.6°F13.7°C 49.1°F9.5°C 76% 3.3 mph ESE5.3 kmh ESE 6.8 mph10.9 kmh 30.21 in1023.0 mb 0.00 in0.0 mm 0.00 in0.0 mm 0.00 in0.0 mm
03:56 AM 56.6°F13.7°C 49.1°F9.5°C 76% 3.7 mph ESE6.0 kmh ESE 6.8 mph10.9 kmh 30.21 in1023.0 mb 0.00 in0.0 mm 0.00 in0.0 mm 0.00 in0.0 mm
04:01 AM 56.6°F13.7°C 49.1°F9.5°C 76% 2.4 mph SE3.9 kmh SE 6.8 mph10.9 kmh 30.21 in1023.0 mb 0.00 in0.0 mm 0.00 in0.0 mm 0.00 in0.0 mm
04:06 AM 56.6°F13.7°C 49.1°F9.5°C 76% 6.3 mph SE10.1 kmh SE 8.0 mph12.9 kmh 30.24 in1024.0 mb 0.00 in0.0 mm 0.00 in0.0 mm 0.00 in0.0 mm
04:11 AM 56.6°F13.7°C 49.1°F9.5°C 76% 6.2 mph SE10.0 kmh SE 8.0 mph12.9 kmh 30.24 in1024.0 mb 0.00 in0.0 mm 0.00 in0.0 mm 0.00 in0.0 mm
04:16 AM 56.6°F13.7°C 49.1°F9.5°C 76% 7.3 mph SE11.7 kmh SE 12.6 mph20.3 kmh 30.24 in1024.0 mb 0.00 in0.0 mm 0.00 in0.0 mm 0.00 in0.0 mm
04:21 AM 56.6°F13.7°C 48.8°F9.3°C 75% 4.1 mph SE6.6 kmh SE 12.6 mph20.3 kmh 30.24 in1024.0 mb 0.00 in0.0 mm 0.00 in0.0 mm 0.00 in0.0 mm
04:26 AM 56.4°F13.6°C 48.6°F9.2°C 75% 5.3 mph SE8.5 kmh SE 8.6 mph13.8 kmh 30.24 in1024.0 mb 0.00 in0.0 mm 0.00 in0.0 mm 0.00 in0.0 mm
04:31 AM 56.4°F13.6°C 48.6°F9.2°C 75% 3.7 mph ESE6.0 kmh ESE 8.6 mph13.8 kmh 30.24 in1024.0 mb 0.00 in0.0 mm 0.00 in0.0 mm 0.00 in0.0 mm
04:36 AM 56.2°F13.4°C 48.4°F9.1°C 75% 5.4 mph SE8.7 kmh SE 8.0 mph12.9 kmh 30.21 in1023.0 mb 0.00 in0.0 mm 0.00 in0.0 mm 0.00 in0.0 mm
04:41 AM 56.0°F13.3°C 48.2°F9.0°C 75% 4.7 mph SE7.6 kmh SE 7.6 mph12.2 kmh 30.21 in1023.0 mb 0.00 in0.0 mm 0.00 in0.0 mm 0.00 in0.0 mm
04:46 AM 56.0°F13.3°C 48.2°F9.0°C 75% 4.9 mph ESE7.9 kmh ESE 8.0 mph12.9 kmh 30.21 in1023.0 mb 0.00 in0.0 mm 0.00 in0.0 mm 0.00 in0.0 mm
04:51 AM 55.8°F13.2°C 48.0°F8.9°C 75% 3.1 mph ESE5.0 kmh ESE 8.0 mph12.9 kmh 30.24 in1024.0 mb 0.00 in0.0 mm 0.00 in0.0 mm 0.00 in0.0 mm
04:56 AM 55.8°F13.2°C 48.0°F8.9°C 75% 3.8 mph ESE6.1 kmh ESE 6.8 mph10.9 kmh 30.24 in1024.0 mb 0.00 in0.0 mm 0.00 in0.0 mm 0.00 in0.0 mm
05:01 AM 55.7°F13.2°C 47.9°F8.8°C 75% 5.4 mph SE8.7 kmh SE 7.2 mph11.6 kmh 30.24 in1024.0 mb 0.00 in0.0 mm 0.00 in0.0 mm 0.00 in0.0 mm
05:06 AM 55.7°F13.2°C 47.9°F8.8°C 75% 4.3 mph ESE6.9 kmh ESE 8.0 mph12.9 kmh 30.24 in1024.0 mb 0.00 in0.0 mm 0.00 in0.0 mm 0.00 in0.0 mm
05:11 AM 55.7°F13.2°C 47.9°F8.8°C 75% 3.2 mph ESE5.1 kmh ESE 8.0 mph12.9 kmh 30.24 in1024.0 mb 0.00 in0.0 mm 0.00 in0.0 mm 0.00 in0.0 mm
05:17 AM 55.7°F13.2°C 47.9°F8.8°C 75% 3.3 mph SE5.3 kmh SE 6.8 mph10.9 kmh 30.24 in1024.0 mb 0.00 in0.0 mm 0.00 in0.0 mm 0.00 in0.0 mm
05:22 AM 55.7°F13.2°C 47.5°F8.6°C 74% 4.5 mph ESE7.2 kmh ESE 6.2 mph10.0 kmh 30.24 in1024.0 mb 0.00 in0.0 mm 0.00 in0.0 mm 0.00 in0.0 mm
05:27 AM 55.5°F13.1°C 47.3°F8.5°C 74% 5.3 mph ESE8.5 kmh ESE 8.0 mph12.9 kmh 30.24 in1024.0 mb 0.00 in0.0 mm 0.00 in0.0 mm 0.00 in0.0 mm
05:32 AM 55.5°F13.1°C 47.3°F8.5°C 74% 4.7 mph E7.6 kmh E 8.0 mph12.9 kmh 30.24 in1024.0 mb 0.00 in0.0 mm 0.00 in0.0 mm 0.00 in0.0 mm
05:37 AM 55.5°F13.1°C 47.3°F8.5°C 74% 3.5 mph ESE5.6 kmh ESE 6.8 mph10.9 kmh 30.24 in1024.0 mb 0.00 in0.0 mm 0.00 in0.0 mm 0.00 in0.0 mm
05:42 AM 55.3°F12.9°C 46.8°F8.2°C 73% 4.8 mph ESE7.7 kmh ESE 7.6 mph12.2 kmh 30.24 in1024.0 mb 0.00 in0.0 mm 0.00 in0.0 mm 0.00 in0.0 mm
05:47 AM 55.3°F12.9°C 46.8°F8.2°C 73% 5.2 mph ESE8.4 kmh ESE 8.6 mph13.8 kmh 30.24 in1024.0 mb 0.00 in0.0 mm 0.00 in0.0 mm 0.00 in0.0 mm
05:52 AM 55.3°F12.9°C 46.4°F8.0°C 72% 6.1 mph ESE9.8 kmh ESE 9.4 mph15.1 kmh 30.24 in1024.0 mb 0.00 in0.0 mm 0.00 in0.0 mm 0.00 in0.0 mm
05:57 AM 55.3°F12.9°C 46.4°F8.0°C 72% 4.3 mph ESE6.9 kmh ESE 9.4 mph15.1 kmh 30.24 in1024.0 mb 0.00 in0.0 mm 0.00 in0.0 mm 0.00 in0.0 mm
06:02 AM 55.1°F12.8°C 46.2°F7.9°C 72% 3.9 mph SE6.3 kmh SE 8.6 mph13.8 kmh 30.24 in1024.0 mb 0.00 in0.0 mm 0.00 in0.0 mm 0.00 in0.0 mm
06:08 AM 55.1°F12.8°C 45.9°F7.7°C 71% 4.6 mph ESE7.4 kmh ESE 8.6 mph13.8 kmh 30.21 in1023.0 mb 0.00 in0.0 mm 0.00 in0.0 mm 0.00 in0.0 mm
06:13 AM 54.9°F12.7°C 45.7°F7.6°C 71% 6.0 mph E9.7 kmh E 9.4 mph15.1 kmh 30.21 in1023.0 mb 0.00 in0.0 mm 0.00 in0.0 mm 0.00 in0.0 mm
06:18 AM 54.9°F12.7°C 45.7°F7.6°C 71% 3.9 mph E6.3 kmh E 9.4 mph15.1 kmh 30.21 in1023.0 mb 0.00 in0.0 mm 0.00 in0.0 mm 0.00 in0.0 mm
06:23 AM 54.8°F12.7°C 45.2°F7.3°C 70% 4.4 mph E7.1 kmh E 9.4 mph15.1 kmh 30.18 in1022.0 mb 0.00 in0.0 mm 0.00 in0.0 mm 0.00 in0.0 mm
06:28 AM 54.8°F12.7°C 45.2°F7.3°C 70% 7.5 mph ESE12.1 kmh ESE 11.2 mph18.0 kmh 30.18 in1022.0 mb 0.00 in0.0 mm 0.00 in0.0 mm 0.00 in0.0 mm
06:33 AM 54.9°F12.7°C 44.9°F7.2°C 69% 3.8 mph ESE6.1 kmh ESE 11.2 mph18.0 kmh 30.18 in1022.0 mb 0.00 in0.0 mm 0.00 in0.0 mm 0.00 in0.0 mm
06:38 AM 54.8°F12.7°C 45.2°F7.3°C 70% 4.8 mph ESE7.7 kmh ESE 7.2 mph11.6 kmh 30.24 in1024.0 mb 0.00 in0.0 mm 0.00 in0.0 mm 0.00 in0.0 mm
06:43 AM 54.9°F12.7°C 44.9°F7.2°C 69% 7.8 mph ESE12.6 kmh ESE 13.0 mph20.9 kmh 30.24 in1024.0 mb 0.00 in0.0 mm 0.00 in0.0 mm 0.00 in0.0 mm
06:48 AM 54.8°F12.7°C 45.2°F7.3°C 70% 4.0 mph E6.4 kmh E 13.0 mph20.9 kmh 30.24 in1024.0 mb 0.00 in0.0 mm 0.00 in0.0 mm 0.00 in0.0 mm
06:53 AM 54.8°F12.7°C 45.2°F7.3°C 70% 5.7 mph E9.2 kmh E 8.0 mph12.9 kmh 30.21 in1023.0 mb 0.00 in0.0 mm 0.00 in0.0 mm 0.00 in0.0 mm
06:58 AM 54.8°F12.7°C 45.2°F7.3°C 70% 3.9 mph ESE6.3 kmh ESE 8.0 mph12.9 kmh 30.21 in1023.0 mb 0.00 in0.0 mm 0.00 in0.0 mm 0.00 in0.0 mm
07:03 AM 54.8°F12.7°C 44.8°F7.1°C 69% 4.7 mph E7.6 kmh E 6.8 mph10.9 kmh 30.21 in1023.0 mb 0.00 in0.0 mm 0.00 in0.0 mm 0.00 in0.0 mm
07:08 AM 54.6°F12.6°C 45.0°F7.2°C 70% 4.2 mph ESE6.8 kmh ESE 7.2 mph11.6 kmh 30.21 in1023.0 mb 0.00 in0.0 mm 0.00 in0.0 mm 0.00 in0.0 mm
07:13 AM 54.6°F12.6°C 45.0°F7.2°C 70% 3.8 mph E6.1 kmh E 9.4 mph15.1 kmh 30.21 in1023.0 mb 0.00 in0.0 mm 0.00 in0.0 mm 0.00 in0.0 mm
07:18 AM 54.6°F12.6°C 45.0°F7.2°C 70% 4.7 mph SE7.6 kmh SE 9.4 mph15.1 kmh 30.21 in1023.0 mb 0.00 in0.0 mm 0.00 in0.0 mm 0.00 in0.0 mm
07:23 AM 54.6°F12.6°C 45.0°F7.2°C 70% 3.0 mph E4.8 kmh E 7.6 mph12.2 kmh 30.24 in1024.0 mb 0.00 in0.0 mm 0.00 in0.0 mm 0.00 in0.0 mm
07:28 AM 54.4°F12.4°C 44.8°F7.1°C 70% 4.1 mph E6.6 kmh E 5.8 mph9.3 kmh 30.24 in1024.0 mb 0.00 in0.0 mm 0.00 in0.0 mm 0.00 in0.0 mm
07:33 AM 54.4°F12.4°C 45.2°F7.3°C 71% 3.7 mph ESE6.0 kmh ESE 7.2 mph11.6 kmh 30.24 in1024.0 mb 0.00 in0.0 mm 0.00 in0.0 mm 0.00 in0.0 mm
07:38 AM 54.6°F12.6°C 45.4°F7.4°C 71% 4.2 mph SE6.8 kmh SE 7.6 mph12.2 kmh 30.24 in1024.0 mb 0.00 in0.0 mm 0.00 in0.0 mm 0.00 in0.0 mm
07:43 AM 54.6°F12.6°C 45.4°F7.4°C 71% 4.8 mph ESE7.7 kmh ESE 7.6 mph12.2 kmh 30.24 in1024.0 mb 0.00 in0.0 mm 0.00 in0.0 mm 0.00 in0.0 mm
07:48 AM 54.6°F12.6°C 45.8°F7.7°C 72% 5.6 mph ENE9.0 kmh ENE 9.4 mph15.1 kmh 30.24 in1024.0 mb 0.00 in0.0 mm 0.00 in0.0 mm 0.00 in0.0 mm
07:53 AM 54.6°F12.6°C 45.8°F7.7°C 72% 4.1 mph ESE6.6 kmh ESE 9.4 mph15.1 kmh 30.24 in1024.0 mb 0.00 in0.0 mm 0.00 in0.0 mm 0.00 in0.0 mm
07:58 AM 54.8°F12.7°C 46.0°F7.8°C 72% 3.7 mph E6.0 kmh E 7.2 mph11.6 kmh 30.24 in1024.0 mb 0.00 in0.0 mm 0.00 in0.0 mm 0.00 in0.0 mm
08:03 AM 54.9°F12.7°C 46.0°F7.8°C 72% 4.1 mph E6.6 kmh E 8.0 mph12.9 kmh 30.24 in1024.0 mb 0.00 in0.0 mm 0.00 in0.0 mm 0.00 in0.0 mm
08:09 AM 55.1°F12.8°C 46.6°F8.1°C 73% 6.0 mph ESE9.7 kmh ESE 11.6 mph18.7 kmh 30.24 in1024.0 mb 0.00 in0.0 mm 0.00 in0.0 mm 0.00 in0.0 mm
08:14 AM 55.1°F12.8°C 47.0°F8.3°C 74% 6.4 mph E10.3 kmh E 11.6 mph18.7 kmh 30.24 in1024.0 mb 0.00 in0.0 mm 0.00 in0.0 mm 0.00 in0.0 mm
08:19 AM 55.1°F12.8°C 47.0°F8.3°C 74% 4.9 mph E7.9 kmh E 9.8 mph15.8 kmh 30.24 in1024.0 mb 0.00 in0.0 mm 0.00 in0.0 mm 0.00 in0.0 mm
08:24 AM 55.1°F12.8°C 47.3°F8.5°C 75% 4.1 mph ESE6.6 kmh ESE 9.8 mph15.8 kmh 30.24 in1024.0 mb 0.00 in0.0 mm 0.00 in0.0 mm 0.00 in0.0 mm
08:31 AM 55.1°F12.8°C 47.3°F8.5°C 75% 4.7 mph E7.6 kmh E 8.6 mph13.8 kmh 30.24 in1024.0 mb 0.00 in0.0 mm 0.00 in0.0 mm 0.00 in0.0 mm
08:36 AM 55.1°F12.8°C 47.6°F8.7°C 76% 4.6 mph E7.4 kmh E 8.0 mph12.9 kmh 30.24 in1024.0 mb 0.00 in0.0 mm 0.00 in0.0 mm 0.00 in0.0 mm
08:41 AM 55.1°F12.8°C 48.0°F8.9°C 77% 4.5 mph ESE7.2 kmh ESE 8.0 mph12.9 kmh 30.24 in1024.0 mb 0.00 in0.0 mm 0.00 in0.0 mm 0.00 in0.0 mm
08:46 AM 55.3°F12.9°C 48.2°F9.0°C 77% 4.5 mph SE7.2 kmh SE 8.0 mph12.9 kmh 30.24 in1024.0 mb 0.00 in0.0 mm 0.00 in0.0 mm 0.00 in0.0 mm
08:53 AM 55.3°F12.9°C 48.5°F9.2°C 78% 5.6 mph ESE9.0 kmh ESE 9.8 mph15.8 kmh 30.24 in1024.0 mb 0.00 in0.0 mm 0.00 in0.0 mm 0.00 in0.0 mm
08:58 AM 55.5°F13.1°C 48.7°F9.3°C 78% 4.2 mph E6.8 kmh E 9.8 mph15.8 kmh 30.24 in1024.0 mb 0.00 in0.0 mm 0.00 in0.0 mm 0.00 in0.0 mm
09:03 AM 55.5°F13.1°C 48.7°F9.3°C 78% 3.8 mph ESE6.1 kmh ESE 5.8 mph9.3 kmh 30.24 in1024.0 mb 0.00 in0.0 mm 0.00 in0.0 mm 0.00 in0.0 mm
09:08 AM 55.3°F12.9°C 48.5°F9.2°C 78% 1.8 mph ESE2.9 kmh ESE 5.8 mph9.3 kmh 30.27 in1025.1 mb 0.00 in0.0 mm 0.00 in0.0 mm 0.00 in0.0 mm
09:14 AM 54.9°F12.7°C 48.5°F9.2°C 79% Calm Calm 5.4 mph8.7 kmh 30.27 in1025.1 mb 0.00 in0.0 mm 0.00 in0.0 mm 0.00 in0.0 mm
09:19 AM 54.6°F12.6°C 48.8°F9.3°C 81% Calm Calm 5.4 mph8.7 kmh 30.27 in1025.1 mb 0.00 in0.0 mm 0.00 in0.0 mm 0.00 in0.0 mm
09:25 AM 54.2°F12.3°C 48.4°F9.1°C 81% 3.0 mph ESE4.8 kmh ESE 5.0 mph8.0 kmh 30.27 in1025.1 mb 0.00 in0.0 mm 0.00 in0.0 mm 0.00 in0.0 mm
09:30 AM 53.9°F12.2°C 48.8°F9.3°C 83% 3.2 mph E5.1 kmh E 5.8 mph9.3 kmh 30.27 in1025.1 mb 0.00 in0.0 mm 0.00 in0.0 mm 0.00 in0.0 mm
09:35 AM 53.5°F11.9°C 49.0°F9.4°C 85% 4.5 mph E7.2 kmh E 5.8 mph9.3 kmh 30.24 in1024.0 mb 0.00 in0.0 mm 0.00 in0.0 mm 0.00 in0.0 mm
09:40 AM 53.3°F11.8°C 49.4°F9.7°C 87% Calm Calm 5.4 mph8.7 kmh 30.24 in1024.0 mb 0.00 in0.0 mm 0.00 in0.0 mm 0.00 in0.0 mm
09:47 AM 53.3°F11.8°C 50.6°F10.3°C 91% 7.8 mph ENE12.6 kmh ENE 11.6 mph18.7 kmh 30.24 in1024.0 mb 0.00 in0.0 mm 0.00 in0.0 mm 0.00 in0.0 mm
09:52 AM 53.3°F11.8°C 50.6°F10.3°C 91% 3.7 mph E6.0 kmh E 11.6 mph18.7 kmh 30.24 in1024.0 mb 0.00 in0.0 mm 0.00 in0.0 mm 0.00 in0.0 mm
09:58 AM 53.7°F12.1°C 51.3°F10.7°C 92% 4.2 mph E6.8 kmh E 7.6 mph12.2 kmh 30.24 in1024.0 mb 0.04 in1.0 mm 0.40 in10.2 mm 0.04 in1.0 mm
10:03 AM 54.2°F12.3°C 52.4°F11.3°C 94% 5.1 mph ENE8.2 kmh ENE 6.2 mph10.0 kmh 30.24 in1024.0 mb 0.04 in1.0 mm 0.00 in0.0 mm 0.04 in1.0 mm
10:08 AM 54.4°F12.4°C 52.9°F11.6°C 95% 5.0 mph E8.0 kmh E 12.0 mph19.3 kmh 30.24 in1024.0 mb 0.04 in1.0 mm 0.00 in0.0 mm 0.04 in1.0 mm
10:13 AM 54.8°F12.7°C 53.5°F11.9°C 96% 7.0 mph E11.3 kmh E 12.0 mph19.3 kmh 30.24 in1024.0 mb 0.04 in1.0 mm 0.00 in0.0 mm 0.04 in1.0 mm
10:18 AM 55.3°F12.9°C 54.0°F12.2°C 96% 9.5 mph ENE15.3 kmh ENE 14.8 mph23.8 kmh 30.24 in1024.0 mb 0.04 in1.0 mm 0.00 in0.0 mm 0.04 in1.0 mm
10:23 AM 55.8°F13.2°C 54.5°F12.5°C 96% 5.6 mph E9.0 kmh E 14.8 mph23.8 kmh 30.21 in1023.0 mb 0.04 in1.0 mm 0.00 in0.0 mm 0.04 in1.0 mm
10:28 AM 56.2°F13.4°C 54.6°F12.6°C 95% 6.0 mph ENE9.7 kmh ENE 10.8 mph17.4 kmh 30.21 in1023.0 mb 0.04 in1.0 mm 0.00 in0.0 mm 0.04 in1.0 mm
10:33 AM 56.9°F13.8°C 55.0°F12.8°C 94% 4.7 mph E7.6 kmh E 9.8 mph15.8 kmh 30.21 in1023.0 mb 0.04 in1.0 mm 0.00 in0.0 mm 0.04 in1.0 mm
10:38 AM 57.5°F14.2°C 55.3°F12.9°C 93% 6.0 mph E9.7 kmh E 9.4 mph15.1 kmh 30.24 in1024.0 mb 0.04 in1.0 mm 0.00 in0.0 mm 0.04 in1.0 mm
10:43 AM 57.1°F13.9°C 54.6°F12.6°C 92% 6.5 mph E10.5 kmh E 12.6 mph20.3 kmh 30.24 in1024.0 mb 0.04 in1.0 mm 0.00 in0.0 mm 0.04 in1.0 mm
10:48 AM 56.7°F13.7°C 54.3°F12.4°C 92% 8.3 mph E13.4 kmh E 12.6 mph20.3 kmh 30.24 in1024.0 mb 0.04 in1.0 mm 0.00 in0.0 mm 0.04 in1.0 mm
10:53 AM 56.7°F13.7°C 54.3°F12.4°C 92% 8.3 mph E13.4 kmh E 13.8 mph22.2 kmh 30.21 in1023.0 mb 0.00 in0.0 mm 0.00 in0.0 mm 0.04 in1.0 mm
10:58 AM 57.1°F13.9°C 54.6°F12.6°C 92% 6.3 mph ESE10.1 kmh ESE 13.8 mph22.2 kmh 30.21 in1023.0 mb 0.00 in0.0 mm 0.00 in0.0 mm 0.04 in1.0 mm
11:03 AM 57.5°F14.2°C 55.0°F12.8°C 92% 8.6 mph SE13.8 kmh SE 13.0 mph20.9 kmh 30.21 in1023.0 mb 0.00 in0.0 mm 0.00 in0.0 mm 0.04 in1.0 mm
11:09 AM 57.1°F13.9°C 54.6°F12.6°C 92% 5.7 mph E9.2 kmh E 13.0 mph20.9 kmh 30.24 in1024.0 mb 0.00 in0.0 mm 0.00 in0.0 mm 0.04 in1.0 mm
11:14 AM 56.7°F13.7°C 54.5°F12.5°C 93% 8.1 mph E13.0 kmh E 14.4 mph23.2 kmh 30.24 in1024.0 mb 0.00 in0.0 mm 0.00 in0.0 mm 0.04 in1.0 mm
11:19 AM 56.2°F13.4°C 54.1°F12.3°C 93% 7.7 mph SE12.4 kmh SE 14.4 mph23.2 kmh 30.24 in1024.0 mb 0.00 in0.0 mm 0.00 in0.0 mm 0.04 in1.0 mm
11:24 AM 56.0°F13.3°C 53.9°F12.2°C 93% 8.3 mph SE13.4 kmh SE 14.4 mph23.2 kmh 30.24 in1024.0 mb 0.00 in0.0 mm 0.00 in0.0 mm 0.04 in1.0 mm
11:32 AM 55.3°F12.9°C 53.5°F11.9°C 94% 6.3 mph ESE10.1 kmh ESE 14.4 mph23.2 kmh 30.24 in1024.0 mb 0.00 in0.0 mm 0.00 in0.0 mm 0.04 in1.0 mm
11:37 AM 54.9°F12.7°C 53.6°F12.0°C 96% 8.3 mph SE13.4 kmh SE 12.0 mph19.3 kmh 30.24 in1024.0 mb 0.04 in1.0 mm 0.48 in12.2 mm 0.08 in2.0 mm
11:43 AM 54.8°F12.7°C 54.1°F12.3°C 98% 8.9 mph ESE14.3 kmh ESE 12.6 mph20.3 kmh 30.24 in1024.0 mb 0.04 in1.0 mm 0.00 in0.0 mm 0.08 in2.0 mm
11:48 AM 54.6°F12.6°C 53.9°F12.2°C 98% 7.4 mph E11.9 kmh E 14.4 mph23.2 kmh 30.24 in1024.0 mb 0.04 in1.0 mm 0.00 in0.0 mm 0.08 in2.0 mm
11:53 AM 54.6°F12.6°C 53.9°F12.2°C 98% 6.1 mph E9.8 kmh E 14.4 mph23.2 kmh 30.21 in1023.0 mb 0.04 in1.0 mm 0.00 in0.0 mm 0.12 in3.0 mm
11:58 AM 54.6°F12.6°C 53.9°F12.2°C 98% 9.5 mph SE15.3 kmh SE 12.6 mph20.3 kmh 30.21 in1023.0 mb 0.04 in1.0 mm 0.00 in0.0 mm 0.12 in3.0 mm
12:03 PM 54.8°F12.7°C 54.1°F12.3°C 98% 4.7 mph E7.6 kmh E 12.6 mph20.3 kmh 30.21 in1023.0 mb 0.04 in1.0 mm 0.00 in0.0 mm 0.12 in3.0 mm
12:08 PM 54.8°F12.7°C 54.1°F12.3°C 98% 8.1 mph E13.0 kmh E 13.0 mph20.9 kmh 30.21 in1023.0 mb 0.04 in1.0 mm 0.00 in0.0 mm 0.12 in3.0 mm
12:14 PM 54.9°F12.7°C 54.2°F12.3°C 98% 8.8 mph ESE14.2 kmh ESE 20.2 mph32.5 kmh 30.21 in1023.0 mb 0.04 in1.0 mm 0.00 in0.0 mm 0.12 in3.0 mm
12:19 PM 55.3°F12.9°C 54.6°F12.6°C 98% 7.3 mph E11.7 kmh E 20.2 mph32.5 kmh 30.21 in1023.0 mb 0.04 in1.0 mm 0.00 in0.0 mm 0.12 in3.0 mm
12:24 PM 56.2°F13.4°C 55.5°F13.1°C 98% 8.9 mph E14.3 kmh E 12.0 mph19.3 kmh 30.18 in1022.0 mb 0.04 in1.0 mm 0.00 in0.0 mm 0.12 in3.0 mm
12:29 PM 56.6°F13.7°C 55.9°F13.3°C 98% 7.7 mph E12.4 kmh E 15.2 mph24.5 kmh 30.18 in1022.0 mb 0.04 in1.0 mm 0.00 in0.0 mm 0.12 in3.0 mm
12:34 PM 56.9°F13.8°C 56.2°F13.4°C 98% 8.5 mph ESE13.7 kmh ESE 15.2 mph24.5 kmh 30.18 in1022.0 mb 0.04 in1.0 mm 0.00 in0.0 mm 0.12 in3.0 mm
12:39 PM 57.1°F13.9°C 56.4°F13.6°C 98% 8.1 mph E13.0 kmh E 17.8 mph28.6 kmh 30.21 in1023.0 mb 0.04 in1.0 mm 0.00 in0.0 mm 0.12 in3.0 mm
12:44 PM 56.9°F13.8°C 55.9°F13.3°C 97% 12.6 mph SE20.3 kmh SE 21.4 mph34.4 kmh 30.21 in1023.0 mb 0.04 in1.0 mm 0.00 in0.0 mm 0.12 in3.0 mm
12:49 PM 57.1°F13.9°C 56.1°F13.4°C 97% 13.5 mph ESE21.7 kmh ESE 21.4 mph34.4 kmh 30.21 in1023.0 mb 0.04 in1.0 mm 0.00 in0.0 mm 0.12 in3.0 mm
12:54 PM 57.3°F14.1°C 56.3°F13.5°C 97% 6.7 mph E10.8 kmh E 21.4 mph34.4 kmh 30.18 in1022.0 mb 0.00 in0.0 mm 0.00 in0.0 mm 0.12 in3.0 mm
12:59 PM 57.3°F14.1°C 56.0°F13.3°C 96% 15.0 mph ESE24.1 kmh ESE 20.2 mph32.5 kmh 30.18 in1022.0 mb 0.00 in0.0 mm 0.00 in0.0 mm 0.12 in3.0 mm
01:04 PM 57.5°F14.2°C 56.2°F13.4°C 96% 12.5 mph E20.1 kmh E 26.0 mph41.8 kmh 30.18 in1022.0 mb 0.00 in0.0 mm 0.00 in0.0 mm 0.12 in3.0 mm
01:09 PM 57.5°F14.2°C 56.2°F13.4°C 96% 9.0 mph SE14.5 kmh SE 26.0 mph41.8 kmh 30.18 in1022.0 mb 0.00 in0.0 mm 0.00 in0.0 mm 0.12 in3.0 mm
01:14 PM 57.5°F14.2°C 56.2°F13.4°C 96% 6.9 mph E11.1 kmh E 23.8 mph38.3 kmh 30.18 in1022.0 mb 0.00 in0.0 mm 0.00 in0.0 mm 0.12 in3.0 mm
01:19 PM 57.8°F14.3°C 56.5°F13.6°C 96% 8.4 mph ESE13.5 kmh ESE 23.8 mph38.3 kmh 30.18 in1022.0 mb 0.00 in0.0 mm 0.00 in0.0 mm 0.12 in3.0 mm
01:25 PM 57.6°F14.2°C 56.3°F13.5°C 96% 11.9 mph SSE19.2 kmh SSE 20.2 mph32.5 kmh 30.18 in1022.0 mb 0.00 in0.0 mm 0.00 in0.0 mm 0.12 in3.0 mm
01:30 PM 57.6°F14.2°C 56.6°F13.7°C 97% 8.8 mph E14.2 kmh E 17.4 mph28.0 kmh 30.18 in1022.0 mb 0.00 in0.0 mm 0.00 in0.0 mm 0.12 in3.0 mm
01:35 PM 57.3°F14.1°C 56.3°F13.5°C 97% 6.7 mph E10.8 kmh E 17.4 mph28.0 kmh 30.15 in1021.0 mb 0.00 in0.0 mm 0.00 in0.0 mm 0.12 in3.0 mm
01:40 PM 56.9°F13.8°C 56.2°F13.4°C 98% 7.2 mph E11.6 kmh E 16.2 mph26.1 kmh 30.15 in1021.0 mb 0.04 in1.0 mm 0.48 in12.2 mm 0.16 in4.1 mm
01:45 PM 56.6°F13.7°C 55.9°F13.3°C 98% 10.4 mph ESE16.7 kmh ESE 16.2 mph26.1 kmh 30.15 in1021.0 mb 0.04 in1.0 mm 0.00 in0.0 mm 0.16 in4.1 mm
01:50 PM 56.6°F13.7°C 55.9°F13.3°C 98% 9.0 mph SE14.5 kmh SE 16.2 mph26.1 kmh 30.18 in1022.0 mb 0.04 in1.0 mm 0.00 in0.0 mm 0.16 in4.1 mm
01:55 PM 56.6°F13.7°C 55.9°F13.3°C 98% 10.1 mph ESE16.3 kmh ESE 15.6 mph25.1 kmh 30.18 in1022.0 mb 0.00 in0.0 mm 0.00 in0.0 mm 0.16 in4.1 mm
02:00 PM 56.7°F13.7°C 56.0°F13.3°C 98% 4.6 mph E7.4 kmh E 10.8 mph17.4 kmh 30.18 in1022.0 mb 0.04 in1.0 mm 0.04 in1.0 mm 0.20 in5.1 mm
02:06 PM 56.6°F13.7°C 55.9°F13.3°C 98% 5.6 mph E9.0 kmh E 9.8 mph15.8 kmh 30.18 in1022.0 mb 0.04 in1.0 mm 0.00 in0.0 mm 0.20 in5.1 mm
02:11 PM 56.4°F13.6°C 55.7°F13.2°C 98% 6.9 mph E11.1 kmh E 8.0 mph12.9 kmh 30.18 in1022.0 mb 0.04 in1.0 mm 0.00 in0.0 mm 0.20 in5.1 mm
02:16 PM 56.2°F13.4°C 55.5°F13.1°C 98% 10.7 mph SE17.2 kmh SE 18.4 mph29.6 kmh 30.18 in1022.0 mb 0.04 in1.0 mm 0.00 in0.0 mm 0.20 in5.1 mm
02:21 PM 56.2°F13.4°C 55.5°F13.1°C 98% 8.0 mph E12.9 kmh E 18.4 mph29.6 kmh 30.18 in1022.0 mb 0.04 in1.0 mm 0.00 in0.0 mm 0.20 in5.1 mm
02:26 PM 56.4°F13.6°C 55.7°F13.2°C 98% 8.8 mph E14.2 kmh E 15.6 mph25.1 kmh 30.18 in1022.0 mb 0.04 in1.0 mm 0.00 in0.0 mm 0.20 in5.1 mm
02:31 PM 56.4°F13.6°C 55.7°F13.2°C 98% 9.1 mph ESE14.6 kmh ESE 14.4 mph23.2 kmh 30.18 in1022.0 mb 0.04 in1.0 mm 0.00 in0.0 mm 0.20 in5.1 mm
02:36 PM 56.4°F13.6°C 55.7°F13.2°C 98% 5.0 mph E8.0 kmh E 11.6 mph18.7 kmh 30.21 in1023.0 mb 0.04 in1.0 mm 0.00 in0.0 mm 0.20 in5.1 mm
02:41 PM 56.2°F13.4°C 55.5°F13.1°C 98% 4.4 mph SE7.1 kmh SE 12.0 mph19.3 kmh 30.21 in1023.0 mb 0.04 in1.0 mm 0.00 in0.0 mm 0.20 in5.1 mm
02:46 PM 56.2°F13.4°C 55.5°F13.1°C 98% 9.0 mph E14.5 kmh E 18.4 mph29.6 kmh 30.21 in1023.0 mb 0.08 in2.0 mm 0.48 in12.2 mm 0.25 in6.4 mm
02:51 PM 56.2°F13.4°C 55.5°F13.1°C 98% 7.1 mph SE11.4 kmh SE 18.4 mph29.6 kmh 30.15 in1021.0 mb 0.00 in0.0 mm 0.00 in0.0 mm 0.25 in6.4 mm
02:56 PM 56.6°F13.7°C 55.9°F13.3°C 98% 6.5 mph E10.5 kmh E 13.0 mph20.9 kmh 30.15 in1021.0 mb 0.00 in0.0 mm 0.00 in0.0 mm 0.25 in6.4 mm
03:01 PM 56.7°F13.7°C 56.0°F13.3°C 98% 6.2 mph ESE10.0 kmh ESE 6.8 mph10.9 kmh 30.15 in1021.0 mb 0.04 in1.0 mm 0.04 in1.0 mm 0.28 in7.1 mm
03:06 PM 56.7°F13.7°C 56.0°F13.3°C 98% 7.3 mph E11.7 kmh E 8.6 mph13.8 kmh 30.15 in1021.0 mb 0.04 in1.0 mm 0.00 in0.0 mm 0.28 in7.1 mm
03:11 PM 56.7°F13.7°C 56.0°F13.3°C 98% 12.8 mph E20.6 kmh E 15.2 mph24.5 kmh 30.15 in1021.0 mb 0.04 in1.0 mm 0.00 in0.0 mm 0.28 in7.1 mm
03:17 PM 56.7°F13.7°C 56.0°F13.3°C 98% 9.8 mph ESE15.8 kmh ESE 15.2 mph24.5 kmh 30.15 in1021.0 mb 0.04 in1.0 mm 0.00 in0.0 mm 0.28 in7.1 mm
03:22 PM 56.6°F13.7°C 55.9°F13.3°C 98% 11.3 mph ESE18.2 kmh ESE 12.6 mph20.3 kmh 30.12 in1020.0 mb 0.04 in1.0 mm 0.00 in0.0 mm 0.28 in7.1 mm
03:27 PM 56.4°F13.6°C 55.7°F13.2°C 98% 8.7 mph ESE14.0 kmh ESE 26.8 mph43.1 kmh 30.12 in1020.0 mb 0.08 in2.0 mm 0.48 in12.2 mm 0.33 in8.4 mm
03:32 PM 56.4°F13.6°C 55.7°F13.2°C 98% 6.6 mph SE10.6 kmh SE 26.8 mph43.1 kmh 30.12 in1020.0 mb 0.08 in2.0 mm 0.00 in0.0 mm 0.33 in8.4 mm
03:37 PM 56.4°F13.6°C 55.7°F13.2°C 98% 5.9 mph E9.5 kmh E 8.6 mph13.8 kmh 30.12 in1020.0 mb 0.08 in2.0 mm 0.00 in0.0 mm 0.33 in8.4 mm
03:42 PM 56.2°F13.4°C 55.5°F13.1°C 98% 8.8 mph E14.2 kmh E 12.6 mph20.3 kmh 30.12 in1020.0 mb 0.08 in2.0 mm 0.00 in0.0 mm 0.33 in8.4 mm
03:47 PM 56.4°F13.6°C 55.7°F13.2°C 98% 5.2 mph E8.4 kmh E 12.6 mph20.3 kmh 30.12 in1020.0 mb 0.08 in2.0 mm 0.00 in0.0 mm 0.33 in8.4 mm
03:52 PM 56.4°F13.6°C 55.7°F13.2°C 98% 6.6 mph ESE10.6 kmh ESE 14.4 mph23.2 kmh 30.12 in1020.0 mb 0.00 in0.0 mm 0.00 in0.0 mm 0.33 in8.4 mm
03:58 PM 56.4°F13.6°C 55.7°F13.2°C 98% 6.1 mph ENE9.8 kmh ENE 14.4 mph23.2 kmh 30.12 in1020.0 mb 0.00 in0.0 mm 0.00 in0.0 mm 0.33 in8.4 mm
04:03 PM 56.2°F13.4°C 55.5°F13.1°C 98% 4.0 mph SSE6.4 kmh SSE 7.2 mph11.6 kmh 30.12 in1020.0 mb 0.04 in1.0 mm 0.04 in1.0 mm 0.37 in9.4 mm
04:10 PM 56.2°F13.4°C 55.5°F13.1°C 98% 7.1 mph E11.4 kmh E 7.2 mph11.6 kmh 30.12 in1020.0 mb 0.04 in1.0 mm 0.00 in0.0 mm 0.37 in9.4 mm
04:15 PM 56.2°F13.4°C 55.5°F13.1°C 98% 7.2 mph E11.6 kmh E 7.2 mph11.6 kmh 30.12 in1020.0 mb 0.08 in2.0 mm 0.48 in12.2 mm 0.41 in10.4 mm
04:20 PM 56.0°F13.3°C 55.3°F12.9°C 98% 5.9 mph NE9.5 kmh NE 7.2 mph11.6 kmh 30.09 in1019.0 mb 0.12 in3.0 mm 0.48 in12.2 mm 0.45 in11.4 mm
04:25 PM 56.0°F13.3°C 55.3°F12.9°C 98% 6.1 mph NE9.8 kmh NE 8.0 mph12.9 kmh 30.09 in1019.0 mb 0.17 in4.3 mm 0.60 in15.2 mm 0.49 in12.4 mm
04:30 PM 56.0°F13.3°C 55.3°F12.9°C 98% 9.4 mph ENE15.1 kmh ENE 9.4 mph15.1 kmh 30.09 in1019.0 mb 0.17 in4.3 mm 0.00 in0.0 mm 0.49 in12.4 mm
04:35 PM 56.0°F13.3°C 55.3°F12.9°C 98% 9.4 mph ENE15.1 kmh ENE 9.4 mph15.1 kmh 30.12 in1020.0 mb 0.17 in4.3 mm 0.00 in0.0 mm 0.49 in12.4 mm
04:42 PM 56.0°F13.3°C 55.3°F12.9°C 98% 9.4 mph ENE15.1 kmh ENE 9.4 mph15.1 kmh 30.12 in1020.0 mb 0.25 in6.4 mm 0.69 in17.5 mm 0.58 in14.7 mm
04:47 PM 56.2°F13.4°C 55.5°F13.1°C 98% 5.4 mph ENE8.7 kmh ENE 9.4 mph15.1 kmh 30.12 in1020.0 mb 0.29 in7.4 mm 0.48 in12.2 mm 0.62 in15.7 mm
04:52 PM 56.2°F13.4°C 55.5°F13.1°C 98% 5.4 mph ENE8.7 kmh ENE 9.4 mph15.1 kmh 30.09 in1019.0 mb 0.00 in0.0 mm 0.00 in0.0 mm 0.66 in16.8 mm
04:57 PM 56.2°F13.4°C 55.5°F13.1°C 98% 7.1 mph ENE11.4 kmh ENE 8.0 mph12.9 kmh 30.09 in1019.0 mb 0.00 in0.0 mm 0.00 in0.0 mm 0.66 in16.8 mm
05:03 PM 56.2°F13.4°C 55.5°F13.1°C 98% 8.0 mph ENE12.9 kmh ENE 8.0 mph12.9 kmh 30.09 in1019.0 mb 0.04 in1.0 mm 0.04 in1.0 mm 0.70 in17.8 mm
05:08 PM 56.2°F13.4°C 55.5°F13.1°C 98% 7.6 mph NNE12.2 kmh NNE 8.0 mph12.9 kmh 30.12 in1020.0 mb 0.04 in1.0 mm 0.00 in0.0 mm 0.70 in17.8 mm
05:13 PM 56.2°F13.4°C 55.5°F13.1°C 98% 6.2 mph NE10.0 kmh NE 8.0 mph12.9 kmh 30.12 in1020.0 mb 0.08 in2.0 mm 0.48 in12.2 mm 0.74 in18.8 mm
05:18 PM 56.2°F13.4°C 55.5°F13.1°C 98% 4.0 mph ENE6.4 kmh ENE 7.6 mph12.2 kmh 30.12 in1020.0 mb 0.13 in3.3 mm 0.60 in15.2 mm 0.78 in19.8 mm
05:23 PM 56.2°F13.4°C 55.5°F13.1°C 98% 5.0 mph NE8.0 kmh NE 6.8 mph10.9 kmh 30.12 in1020.0 mb 0.17 in4.3 mm 0.48 in12.2 mm 0.82 in20.8 mm
05:28 PM 56.2°F13.4°C 55.5°F13.1°C 98% 5.8 mph NE9.3 kmh NE 6.8 mph10.9 kmh 30.12 in1020.0 mb 0.21 in5.3 mm 0.48 in12.2 mm 0.87 in22.1 mm
05:34 PM 56.4°F13.6°C 55.7°F13.2°C 98% 10.3 mph ENE16.6 kmh ENE 11.6 mph18.7 kmh 30.12 in1020.0 mb 0.21 in5.3 mm 0.00 in0.0 mm 0.87 in22.1 mm
05:39 PM 56.2°F13.4°C 55.5°F13.1°C 98% 8.9 mph ENE14.3 kmh ENE 14.4 mph23.2 kmh 30.09 in1019.0 mb 0.21 in5.3 mm 0.00 in0.0 mm 0.87 in22.1 mm
05:44 PM 56.2°F13.4°C 55.5°F13.1°C 98% 6.2 mph ENE10.0 kmh ENE 14.4 mph23.2 kmh 30.09 in1019.0 mb 0.25 in6.4 mm 0.48 in12.2 mm 0.91 in23.1 mm
05:49 PM 56.2°F13.4°C 55.5°F13.1°C 98% 6.2 mph NE10.0 kmh NE 7.6 mph12.2 kmh 30.09 in1019.0 mb 0.25 in6.4 mm 0.00 in0.0 mm 0.91 in23.1 mm
05:54 PM 56.2°F13.4°C 55.5°F13.1°C 98% 7.3 mph NE11.7 kmh NE 10.8 mph17.4 kmh 30.12 in1020.0 mb 0.00 in0.0 mm 0.00 in0.0 mm 0.91 in23.1 mm
05:59 PM 56.2°F13.4°C 55.5°F13.1°C 98% 9.8 mph ENE15.8 kmh ENE 10.8 mph17.4 kmh 30.12 in1020.0 mb 0.00 in0.0 mm 0.00 in0.0 mm 0.91 in23.1 mm
06:04 PM 56.2°F13.4°C 55.5°F13.1°C 98% 12.5 mph NE20.1 kmh NE 13.0 mph20.9 kmh 30.12 in1020.0 mb 0.00 in0.0 mm 0.00 in0.0 mm 0.91 in23.1 mm
06:09 PM 56.2°F13.4°C 55.5°F13.1°C 98% 5.1 mph E8.2 kmh E 13.0 mph20.9 kmh 30.09 in1019.0 mb 0.04 in1.0 mm 0.48 in12.2 mm 0.95 in24.1 mm
06:14 PM 56.0°F13.3°C 55.3°F12.9°C 98% 6.2 mph ENE10.0 kmh ENE 13.0 mph20.9 kmh 30.09 in1019.0 mb 0.04 in1.0 mm 0.00 in0.0 mm 0.95 in24.1 mm
06:19 PM 56.0°F13.3°C 55.3°F12.9°C 98% 5.9 mph ENE9.5 kmh ENE 6.8 mph10.9 kmh 30.09 in1019.0 mb 0.04 in1.0 mm 0.00 in0.0 mm 0.95 in24.1 mm
06:24 PM 56.0°F13.3°C 55.3°F12.9°C 98% 6.9 mph NE11.1 kmh NE 9.8 mph15.8 kmh 30.09 in1019.0 mb 0.08 in2.0 mm 0.48 in12.2 mm 0.99 in25.1 mm
06:29 PM 56.0°F13.3°C 55.3°F12.9°C 98% 9.4 mph NE15.1 kmh NE 9.8 mph15.8 kmh 30.09 in1019.0 mb 0.08 in2.0 mm 0.00 in0.0 mm 0.99 in25.1 mm
06:35 PM 56.0°F13.3°C 55.3°F12.9°C 98% 9.4 mph NNE15.1 kmh NNE 9.4 mph15.1 kmh 30.09 in1019.0 mb 0.08 in2.0 mm 0.00 in0.0 mm 0.99 in25.1 mm
06:40 PM 56.0°F13.3°C 55.3°F12.9°C 98% 6.7 mph ENE10.8 kmh ENE 9.4 mph15.1 kmh 30.09 in1019.0 mb 0.08 in2.0 mm 0.00 in0.0 mm 0.99 in25.1 mm
06:45 PM 55.8°F13.2°C 55.1°F12.8°C 98% 5.4 mph E8.7 kmh E 9.4 mph15.1 kmh 30.09 in1019.0 mb 0.08 in2.0 mm 0.00 in0.0 mm 0.99 in25.1 mm
06:50 PM 55.8°F13.2°C 55.1°F12.8°C 98% 6.8 mph ENE10.9 kmh ENE 6.8 mph10.9 kmh 30.09 in1019.0 mb 0.00 in0.0 mm 0.00 in0.0 mm 0.99 in25.1 mm
06:56 PM 55.8°F13.2°C 55.1°F12.8°C 98% 8.6 mph ENE13.8 kmh ENE 8.6 mph13.8 kmh 30.09 in1019.0 mb 0.00 in0.0 mm 0.00 in0.0 mm 0.99 in25.1 mm
07:01 PM 55.8°F13.2°C 55.1°F12.8°C 98% 10.7 mph ESE17.2 kmh ESE 11.2 mph18.0 kmh 30.09 in1019.0 mb 0.00 in0.0 mm 0.00 in0.0 mm 0.99 in25.1 mm
07:07 PM 55.8°F13.2°C 55.1°F12.8°C 98% 7.3 mph ENE11.7 kmh ENE 11.2 mph18.0 kmh 30.09 in1019.0 mb 0.00 in0.0 mm 0.00 in0.0 mm 0.99 in25.1 mm
07:12 PM 55.8°F13.2°C 55.1°F12.8°C 98% 11.6 mph ENE18.7 kmh ENE 11.6 mph18.7 kmh 30.09 in1019.0 mb 0.00 in0.0 mm 0.00 in0.0 mm 0.99 in25.1 mm
07:17 PM 55.8°F13.2°C 55.1°F12.8°C 98% 6.8 mph E10.9 kmh E 11.6 mph18.7 kmh 30.09 in1019.0 mb 0.00 in0.0 mm 0.00 in0.0 mm 0.99 in25.1 mm
07:22 PM 55.8°F13.2°C 55.1°F12.8°C 98% 6.8 mph E10.9 kmh E 11.6 mph18.7 kmh 30.12 in1020.0 mb 0.04 in1.0 mm 0.48 in12.2 mm 1.03 in26.2 mm
07:27 PM 55.7°F13.2°C 55.0°F12.8°C 98% 5.5 mph E8.9 kmh E 6.8 mph10.9 kmh 30.12 in1020.0 mb 0.04 in1.0 mm 0.00 in0.0 mm 1.03 in26.2 mm
07:32 PM 55.7°F13.2°C 55.0°F12.8°C 98% 6.5 mph E10.5 kmh E 10.8 mph17.4 kmh 30.12 in1020.0 mb 0.04 in1.0 mm 0.00 in0.0 mm 1.03 in26.2 mm
07:37 PM 55.7°F13.2°C 55.0°F12.8°C 98% 7.6 mph E12.2 kmh E 10.8 mph17.4 kmh 30.09 in1019.0 mb 0.04 in1.0 mm 0.00 in0.0 mm 1.03 in26.2 mm
07:42 PM 55.7°F13.2°C 55.0°F12.8°C 98% 9.5 mph E15.3 kmh E 11.6 mph18.7 kmh 30.09 in1019.0 mb 0.08 in2.0 mm 0.48 in12.2 mm 1.07 in27.2 mm
07:48 PM 55.5°F13.1°C 54.8°F12.7°C 98% 8.6 mph NE13.8 kmh NE 11.6 mph18.7 kmh 30.09 in1019.0 mb 0.08 in2.0 mm 0.00 in0.0 mm 1.07 in27.2 mm
07:53 PM 55.5°F13.1°C 54.8°F12.7°C 98% 8.6 mph NE13.8 kmh NE 8.6 mph13.8 kmh 30.09 in1019.0 mb 0.00 in0.0 mm 0.00 in0.0 mm 1.07 in27.2 mm
07:58 PM 55.5°F13.1°C 54.8°F12.7°C 98% 6.6 mph N10.6 kmh N 8.6 mph13.8 kmh 30.09 in1019.0 mb 0.04 in1.0 mm 0.48 in12.2 mm 1.12 in28.4 mm
08:03 PM 55.3°F12.9°C 54.6°F12.6°C 98% 6.8 mph 10.9 kmh 8.6 mph13.8 kmh 30.09 in1019.0 mb 0.04 in1.0 mm 0.00 in0.0 mm 1.12 in28.4 mm
08:08 PM 55.3°F12.9°C 54.6°F12.6°C 98% 6.4 mph NNE10.3 kmh NNE 6.8 mph10.9 kmh 30.12 in1020.0 mb 0.04 in1.0 mm 0.00 in0.0 mm 1.12 in28.4 mm
08:13 PM 55.3°F12.9°C 54.6°F12.6°C 98% 13.0 mph E20.9 kmh E 13.8 mph22.2 kmh 30.12 in1020.0 mb 0.04 in1.0 mm 0.00 in0.0 mm 1.12 in28.4 mm
08:21 PM 55.1°F12.8°C 54.4°F12.4°C 98% 6.2 mph WNW10.0 kmh WNW 13.8 mph22.2 kmh 30.12 in1020.0 mb 0.08 in2.0 mm 0.30 in7.6 mm 1.15 in29.2 mm
08:26 PM 55.1°F12.8°C 54.4°F12.4°C 98% 6.2 mph WNW10.0 kmh WNW 13.8 mph22.2 kmh 30.12 in1020.0 mb 0.08 in2.0 mm 0.00 in0.0 mm 1.15 in29.2 mm
08:31 PM 54.9°F12.7°C 54.2°F12.3°C 98% 6.2 mph WNW10.0 kmh WNW 6.2 mph10.0 kmh 30.12 in1020.0 mb 0.08 in2.0 mm 0.00 in0.0 mm 1.15 in29.2 mm
08:36 PM 54.9°F12.7°C 54.2°F12.3°C 98% 7.3 mph NW11.7 kmh NW 11.2 mph18.0 kmh 30.12 in1020.0 mb 0.13 in3.3 mm 0.60 in15.2 mm 1.20 in30.5 mm
08:41 PM 54.9°F12.7°C 54.2°F12.3°C 98% 13.8 mph ESE22.2 kmh ESE 13.8 mph22.2 kmh 30.12 in1020.0 mb 0.13 in3.3 mm 0.00 in0.0 mm 1.20 in30.5 mm
08:46 PM 54.9°F12.7°C 54.2°F12.3°C 98% 9.0 mph SE14.5 kmh SE 13.8 mph22.2 kmh 30.12 in1020.0 mb 0.13 in3.3 mm 0.00 in0.0 mm 1.20 in30.5 mm
08:52 PM 54.9°F12.7°C 54.2°F12.3°C 98% 15.6 mph ENE25.1 kmh ENE 17.4 mph28.0 kmh 30.12 in1020.0 mb 0.00 in0.0 mm 0.00 in0.0 mm 1.20 in30.5 mm
08:57 PM 54.8°F12.7°C 54.1°F12.3°C 98% 8.6 mph ESE13.8 kmh ESE 17.4 mph28.0 kmh 30.12 in1020.0 mb 0.00 in0.0 mm 0.00 in0.0 mm 1.20 in30.5 mm
09:02 PM 54.8°F12.7°C 54.1°F12.3°C 98% 8.6 mph ESE13.8 kmh ESE 8.6 mph13.8 kmh 30.12 in1020.0 mb 0.00 in0.0 mm 0.00 in0.0 mm 1.20 in30.5 mm
09:07 PM 54.8°F12.7°C 54.1°F12.3°C 98% 5.8 mph ENE9.3 kmh ENE 8.6 mph13.8 kmh 30.15 in1021.0 mb 0.04 in1.0 mm 0.48 in12.2 mm 1.24 in31.5 mm
09:12 PM 54.6°F12.6°C 53.9°F12.2°C 98% 20.6 mph SSE33.2 kmh SSE 20.6 mph33.2 kmh 30.15 in1021.0 mb 0.04 in1.0 mm 0.00 in0.0 mm 1.24 in31.5 mm
09:17 PM 54.6°F12.6°C 53.9°F12.2°C 98% 14.1 mph SE22.7 kmh SE 20.6 mph33.2 kmh 30.15 in1021.0 mb 0.08 in2.0 mm 0.48 in12.2 mm 1.28 in32.5 mm
09:22 PM 54.6°F12.6°C 53.9°F12.2°C 98% 7.2 mph ESE11.6 kmh ESE 20.6 mph33.2 kmh 30.12 in1020.0 mb 0.08 in2.0 mm 0.00 in0.0 mm 1.28 in32.5 mm
09:27 PM 54.4°F12.4°C 53.7°F12.1°C 98% 15.3 mph ESE24.6 kmh ESE 20.6 mph33.2 kmh 30.12 in1020.0 mb 0.13 in3.3 mm 0.60 in15.2 mm 1.32 in33.5 mm
09:32 PM 54.4°F12.4°C 53.7°F12.1°C 98% 8.6 mph ESE13.8 kmh ESE 20.6 mph33.2 kmh 30.12 in1020.0 mb 0.13 in3.3 mm 0.00 in0.0 mm 1.32 in33.5 mm
09:37 PM 54.4°F12.4°C 53.7°F12.1°C 98% 9.1 mph E14.6 kmh E 15.2 mph24.5 kmh 30.12 in1020.0 mb 0.13 in3.3 mm 0.00 in0.0 mm 1.32 in33.5 mm
09:42 PM 54.2°F12.3°C 53.5°F11.9°C 98% 7.7 mph E12.4 kmh E 10.8 mph17.4 kmh 30.12 in1020.0 mb 0.13 in3.3 mm 0.00 in0.0 mm 1.32 in33.5 mm
09:47 PM 54.2°F12.3°C 53.5°F11.9°C 98% 13.0 mph ESE20.9 kmh ESE 13.0 mph20.9 kmh 30.12 in1020.0 mb 0.17 in4.3 mm 0.48 in12.2 mm 1.36 in34.5 mm
09:52 PM 54.0°F12.2°C 53.3°F11.8°C 98% 13.0 mph ESE20.9 kmh ESE 13.0 mph20.9 kmh 30.09 in1019.0 mb 0.00 in0.0 mm 0.00 in0.0 mm 1.36 in34.5 mm
09:57 PM 54.2°F12.3°C 53.5°F11.9°C 98% 16.2 mph ENE26.1 kmh ENE 16.2 mph26.1 kmh 30.09 in1019.0 mb 0.00 in0.0 mm 0.00 in0.0 mm 1.36 in34.5 mm
10:03 PM 54.0°F12.2°C 53.3°F11.8°C 98% 16.2 mph ENE26.1 kmh ENE 16.2 mph26.1 kmh 30.09 in1019.0 mb 0.04 in1.0 mm 0.04 in1.0 mm 1.41 in35.8 mm
10:08 PM 54.0°F12.2°C 53.3°F11.8°C 98% 6.2 mph SE10.0 kmh SE 16.2 mph26.1 kmh 30.09 in1019.0 mb 0.04 in1.0 mm 0.00 in0.0 mm 1.41 in35.8 mm
10:13 PM 54.0°F12.2°C 53.3°F11.8°C 98% 6.2 mph SE10.0 kmh SE 16.2 mph26.1 kmh 30.09 in1019.0 mb 0.04 in1.0 mm 0.00 in0.0 mm 1.41 in35.8 mm
10:19 PM 54.0°F12.2°C 53.3°F11.8°C 98% 5.8 mph ENE9.3 kmh ENE 6.2 mph10.0 kmh 30.09 in1019.0 mb 0.04 in1.0 mm 0.00 in0.0 mm 1.41 in35.8 mm
10:23 PM 54.2°F12.3°C 53.5°F11.9°C 98% 16.6 mph ENE26.7 kmh ENE 24.6 mph39.6 kmh 30.06 in1017.9 mb 0.08 in2.0 mm 0.60 in15.2 mm 1.45 in36.8 mm
10:28 PM 54.2°F12.3°C 53.5°F11.9°C 98% 6.7 mph E10.8 kmh E 24.6 mph39.6 kmh 30.06 in1017.9 mb 0.08 in2.0 mm 0.00 in0.0 mm 1.45 in36.8 mm
10:34 PM 54.2°F12.3°C 53.5°F11.9°C 98% 5.0 mph ESE8.0 kmh ESE 8.0 mph12.9 kmh 30.06 in1017.9 mb 0.08 in2.0 mm 0.00 in0.0 mm 1.45 in36.8 mm
10:39 PM 54.2°F12.3°C 53.5°F11.9°C 98% 5.0 mph ESE8.0 kmh ESE 6.2 mph10.0 kmh 30.06 in1017.9 mb 0.13 in3.3 mm 0.60 in15.2 mm 1.49 in37.8 mm
10:44 PM 54.2°F12.3°C 53.5°F11.9°C 98% 5.6 mph ESE9.0 kmh ESE 7.2 mph11.6 kmh 30.06 in1017.9 mb 0.13 in3.3 mm 0.00 in0.0 mm 1.49 in37.8 mm
10:49 PM 54.2°F12.3°C 53.5°F11.9°C 98% 7.2 mph ESE11.6 kmh ESE 7.2 mph11.6 kmh 30.06 in1017.9 mb 0.13 in3.3 mm 0.00 in0.0 mm 1.49 in37.8 mm
10:55 PM 54.2°F12.3°C 53.5°F11.9°C 98% 7.2 mph ESE11.6 kmh ESE 7.2 mph11.6 kmh 30.09 in1019.0 mb 0.00 in0.0 mm 0.00 in0.0 mm 1.49 in37.8 mm
11:00 PM 54.2°F12.3°C 53.5°F11.9°C 98% 5.8 mph E9.3 kmh E 7.2 mph11.6 kmh 30.09 in1019.0 mb 0.00 in0.0 mm 0.00 in0.0 mm 1.49 in37.8 mm
11:05 PM 54.4°F12.4°C 53.7°F12.1°C 98% 8.6 mph NE13.8 kmh NE 13.0 mph20.9 kmh 30.09 in1019.0 mb 0.00 in0.0 mm 0.00 in0.0 mm 1.49 in37.8 mm
11:10 PM 54.4°F12.4°C 53.7°F12.1°C 98% 8.3 mph E13.4 kmh E 13.0 mph20.9 kmh 30.09 in1019.0 mb 0.00 in0.0 mm 0.00 in0.0 mm 1.49 in37.8 mm
11:16 PM 54.4°F12.4°C 53.7°F12.1°C 98% 6.2 mph ESE10.0 kmh ESE 11.6 mph18.7 kmh 30.09 in1019.0 mb 0.00 in0.0 mm 0.00 in0.0 mm 1.49 in37.8 mm
11:21 PM 54.6°F12.6°C 53.9°F12.2°C 98% 11.2 mph NE18.0 kmh NE 14.8 mph23.8 kmh 30.09 in1019.0 mb 0.00 in0.0 mm 0.00 in0.0 mm 1.49 in37.8 mm
11:27 PM 54.6°F12.6°C 53.9°F12.2°C 98% 11.2 mph ENE18.0 kmh ENE 14.8 mph23.8 kmh 30.09 in1019.0 mb 0.00 in0.0 mm 0.00 in0.0 mm 1.49 in37.8 mm
11:32 PM 54.8°F12.7°C 54.1°F12.3°C 98% 11.5 mph E18.5 kmh E 12.6 mph20.3 kmh 30.09 in1019.0 mb 0.00 in0.0 mm 0.00 in0.0 mm 1.49 in37.8 mm
11:37 PM 54.8°F12.7°C 54.1°F12.3°C 98% 11.8 mph ENE19.0 kmh ENE 15.2 mph24.5 kmh 30.09 in1019.0 mb 0.00 in0.0 mm 0.00 in0.0 mm 1.49 in37.8 mm
11:42 PM 54.9°F12.7°C 54.2°F12.3°C 98% 6.8 mph ESE10.9 kmh ESE 15.2 mph24.5 kmh 30.09 in1019.0 mb 0.00 in0.0 mm 0.00 in0.0 mm 1.49 in37.8 mm
11:47 PM 54.9°F12.7°C 54.2°F12.3°C 98% 6.7 mph ENE10.8 kmh ENE 12.0 mph19.3 kmh 30.09 in1019.0 mb 0.00 in0.0 mm 0.00 in0.0 mm 1.49 in37.8 mm
11:52 PM 55.1°F12.8°C 54.4°F12.4°C 98% 12.6 mph ESE20.3 kmh ESE 12.6 mph20.3 kmh 30.06 in1017.9 mb 0.00 in0.0 mm 0.00 in0.0 mm 1.49 in37.8 mm
11:57 PM 55.1°F12.8°C 54.4°F12.4°C 98% 13.3 mph SE21.4 kmh SE 15.2 mph24.5 kmh 30.06 in1017.9 mb 0.04 in1.0 mm 0.48 in12.2 mm 1.53 in38.9 mm